Time;durP1;ratioP1;P1;durP2;ratioP2;P2;SDS_P1;SDS_P2;PMS_P1;PMS_P2;Temp;Humidity;BMP_temperature;BMP_pressure;BME280_temperature;BME280_humidity;BME280_pressure;Samples;Min_cycle;Max_cycle;Signal;HPM_P1;HPM_P2
2023/08/22 00:00:10;;;;;;;16.05;7.97;;;;;;;14.65;79.26;98867.78;5094339;28;20036;-57
2023/08/22 00:02:38;;;;;;;18.10;8.18;;;;;;;14.64;80.04;98866.19;5094313;28;20137;-57
2023/08/22 00:05:05;;;;;;;12.45;7.55;;;;;;;14.67;80.89;98865.63;5076100;28;20550;-57
2023/08/22 00:07:31;;;;;;;15.57;9.02;;;;;;;14.67;81.16;98865.63;5075756;28;20044;-56
2023/08/22 00:09:56;;;;;;;15.48;8.73;;;;;;;14.65;82.03;98857.13;5093883;28;20054;-57
2023/08/22 00:12:22;;;;;;;12.40;8.95;;;;;;;14.62;83.35;98861.13;5094116;28;20451;-57
2023/08/22 00:14:48;;;;;;;13.88;8.80;;;;;;;14.62;84.08;98857.66;5094111;28;20040;-57
2023/08/22 00:17:14;;;;;;;15.80;8.93;;;;;;;14.64;85.67;98855.50;5075757;28;20051;-57
2023/08/22 00:19:39;;;;;;;13.07;9.13;;;;;;;14.64;84.81;98844.84;5058915;28;20409;-58
2023/08/22 00:22:05;;;;;;;14.88;8.45;;;;;;;14.62;85.29;98852.31;5093502;28;20076;-57
2023/08/22 00:24:32;;;;;;;14.35;8.95;;;;;;;14.60;86.61;98849.94;5093706;28;20066;-57
2023/08/22 00:26:58;;;;;;;15.77;9.27;;;;;;;14.55;85.12;98847.31;5075502;28;20047;-56
2023/08/22 00:29:24;;;;;;;14.63;7.70;;;;;;;14.51;85.47;98840.91;5093626;28;20042;-57
2023/08/22 00:31:50;;;;;;;16.30;8.30;;;;;;;14.50;85.47;98845.44;5093511;28;20448;-57
2023/08/22 00:34:16;;;;;;;14.73;8.00;;;;;;;14.48;85.49;98836.91;5093515;28;20477;-57
2023/08/22 00:36:42;;;;;;;11.77;7.75;;;;;;;14.48;84.09;98844.91;5075397;28;20043;-56
2023/08/22 00:39:07;;;;;;;14.25;8.35;;;;;;;14.51;85.07;98848.91;5093281;28;20375;-56
2023/08/22 00:41:33;;;;;;;13.13;7.68;;;;;;;14.49;84.82;98841.16;5058799;28;20040;-58
2023/08/22 00:43:59;;;;;;;14.68;8.10;;;;;;;14.48;84.22;98836.13;5075259;28;20040;-57
2023/08/22 00:46:28;;;;;;;12.13;7.35;;;;;;;14.48;83.45;98836.91;5093042;28;20032;-57
2023/08/22 00:48:54;;;;;;;11.95;7.55;;;;;;;14.47;83.56;98827.34;5075035;28;20520;-57
2023/08/22 00:51:20;;;;;;;14.45;7.55;;;;;;;14.47;83.49;98823.84;5058343;28;20036;-57
2023/08/22 00:53:47;;;;;;;14.63;7.63;;;;;;;14.46;83.20;98830.25;5093484;28;20044;-57
2023/08/22 00:56:13;;;;;;;12.15;7.30;;;;;;;14.44;82.74;98829.72;5074944;28;20130;-57
2023/08/22 00:58:38;;;;;;;16.13;7.53;;;;;;;14.44;82.71;98817.22;5074669;28;20536;-57
2023/08/22 01:01:04;;;;;;;11.68;7.15;;;;;;;14.44;82.38;98817.22;5058069;28;20031;-56
2023/08/22 01:03:30;;;;;;;14.32;7.03;;;;;;;14.43;82.13;98802.28;5074637;28;20070;-56
2023/08/22 01:06:03;;;;;;;12.23;7.25;;;;;;;14.41;82.96;98804.44;5092773;28;20040;-57
2023/08/22 01:08:31;;;;;;;12.82;7.05;;;;;;;14.38;83.40;98809.50;5093397;28;20047;-56
2023/08/22 01:11:14;;;;;;;14.68;7.07;;;;;;;14.36;83.57;98804.47;5074654;28;20035;-56
2023/08/22 01:13:40;;;;;;;12.98;8.00;;;;;;;14.36;85.00;98803.69;5074693;28;20059;-57
2023/08/22 01:16:06;;;;;;;13.23;7.30;;;;;;;14.34;84.26;98797.81;5092546;28;20493;-58
2023/08/22 01:18:33;;;;;;;14.15;7.82;;;;;;;14.29;84.55;98798.63;5058057;28;20043;-56
2023/08/22 01:21:06;;;;;;;18.30;8.52;;;;;;;14.25;84.06;98795.72;5057999;28;20036;-57
2023/08/22 01:23:32;;;;;;;15.38;8.18;;;;;;;14.24;83.76;98796.00;5071016;28;20434;-57
2023/08/22 01:26:00;;;;;;;13.93;7.40;;;;;;;14.23;83.01;98797.84;5069734;28;20051;-56
2023/08/22 01:28:37;;;;;;;14.55;6.70;;;;;;;14.22;81.30;98798.16;5071188;28;20064;-57
2023/08/22 01:31:16;;;;;;;9.75;6.40;;;;;;;14.24;79.95;98796.81;5069982;28;20493;-56
2023/08/22 01:33:53;;;;;;;12.15;6.57;;;;;;;14.26;79.77;98785.84;5072167;28;20147;-57
2023/08/22 01:36:20;;;;;;;10.40;6.80;;;;;;;14.26;78.99;98785.84;5070876;28;20072;-57
2023/08/22 01:38:47;;;;;;;14.27;7.13;;;;;;;14.29;80.58;98785.28;5072052;28;20085;-56
2023/08/22 01:41:14;;;;;;;10.50;6.57;;;;;;;14.28;81.43;98789.03;5069968;28;20059;-56
2023/08/22 01:43:44;;;;;;;14.10;7.28;;;;;;;14.26;79.98;98781.31;5071682;28;20044;-57
2023/08/22 01:46:10;;;;;;;19.02;8.30;;;;;;;14.22;79.27;98780.28;5070371;28;20051;-55
2023/08/22 01:48:35;;;;;;;11.15;6.45;;;;;;;14.29;78.95;98785.28;5053880;28;20123;-57
2023/08/22 01:51:02;;;;;;;13.38;6.68;;;;;;;14.33;77.55;98791.69;5070579;28;20045;-57
2023/08/22 01:53:27;;;;;;;14.18;6.72;;;;;;;14.36;76.78;98785.81;5070762;28;20045;-56
2023/08/22 01:55:53;;;;;;;12.38;6.63;;;;;;;14.40;77.77;98780.72;5070812;28;20037;-57
2023/08/22 01:58:19;;;;;;;12.30;7.13;;;;;;;14.43;77.00;98783.59;5070319;28;20051;-55
2023/08/22 02:00:44;;;;;;;18.13;8.38;;;;;;;14.45;77.61;98783.34;5070451;28;20036;-57
2023/08/22 02:03:10;;;;;;;17.02;6.85;;;;;;;14.44;77.37;98782.56;5072064;28;20036;-55
2023/08/22 02:05:36;;;;;;;15.52;7.07;;;;;;;14.42;79.08;98776.69;5070364;28;20123;-57
2023/08/22 02:08:03;;;;;;;11.80;7.32;;;;;;;14.39;77.67;98779.13;5053897;28;20409;-55
2023/08/22 02:10:29;;;;;;;11.25;7.00;;;;;;;14.34;76.98;98773.81;5071763;28;20041;-54
2023/08/22 02:12:55;;;;;;;13.52;7.72;;;;;;;14.32;77.10;98771.41;5053615;28;20052;-56
2023/08/22 02:15:21;;;;;;;14.38;7.13;;;;;;;14.28;76.09;98770.38;5070170;28;20045;-56
2023/08/22 02:18:06;;;;;;;15.18;7.75;;;;;;;14.27;75.60;98769.59;5042618;28;20058;-57
2023/08/22 02:20:32;;;;;;;12.90;7.63;;;;;;;14.27;75.85;98769.59;5053771;28;20040;-59
2023/08/22 02:22:58;;;;;;;18.70;7.97;;;;;;;14.29;75.63;98772.78;5069571;28;20052;-57
2023/08/22 02:25:24;;;;;;;14.23;7.63;;;;;;;14.32;74.88;98768.75;5069637;28;20044;-57
2023/08/22 02:27:49;;;;;;;13.93;7.80;;;;;;;14.33;75.18;98767.69;5069352;28;20041;-57
2023/08/22 02:30:15;;;;;;;14.52;7.80;;;;;;;14.30;75.09;98765.59;5071319;28;20436;-57
2023/08/22 02:32:41;;;;;;;13.20;7.55;;;;;;;14.34;74.13;98768.50;5071493;28;20529;-56
2023/08/22 02:35:07;;;;;;;13.30;7.85;;;;;;;14.34;74.10;98765.81;5069770;28;20414;-57
2023/08/22 02:37:33;;;;;;;14.00;7.78;;;;;;;14.34;74.22;98761.28;5068961;28;20064;-56
2023/08/22 02:39:58;;;;;;;14.68;7.82;;;;;;;14.32;73.72;98758.91;5069078;28;20521;-56
2023/08/22 02:42:24;;;;;;;13.45;7.78;;;;;;;14.34;73.53;98755.16;5053186;28;20041;-56
2023/08/22 02:44:50;;;;;;;15.30;8.35;;;;;;;14.35;73.08;98762.06;5071450;28;20123;-56
2023/08/22 02:47:15;;;;;;;16.83;8.88;;;;;;;14.29;72.95;98740.78;5070588;28;20071;-57
2023/08/22 02:49:41;;;;;;;12.95;7.97;;;;;;;14.36;72.82;98753.03;5071130;28;20635;-56
2023/08/22 02:52:07;;;;;;;17.58;8.05;;;;;;;14.35;73.22;98751.41;5069711;28;20044;-57
2023/08/22 02:54:33;;;;;;;18.90;8.30;;;;;;;14.38;73.55;98756.19;5069763;28;20186;-56
2023/08/22 02:56:58;;;;;;;18.90;8.75;;;;;;;14.39;74.71;98747.91;5069812;28;20135;-56
2023/08/22 02:59:24;;;;;;;14.60;7.70;;;;;;;14.39;74.00;98750.59;5071351;28;20050;-56
2023/08/22 03:01:50;;;;;;;15.82;8.68;;;;;;;14.45;74.06;98746.00;5069809;28;20551;-57
2023/08/22 03:04:15;;;;;;;16.00;8.55;;;;;;;14.48;73.27;98743.59;5071172;28;20091;-55
2023/08/22 03:06:41;;;;;;;14.85;8.98;;;;;;;14.50;73.11;98744.09;5053110;28;20052;-55
2023/08/22 03:09:07;;;;;;;17.08;8.95;;;;;;;14.51;73.15;98743.06;5052942;28;20048;-56
2023/08/22 03:11:33;;;;;;;16.52;8.82;;;;;;;14.61;73.66;98746.72;5069623;28;20513;-56
2023/08/22 03:13:59;;;;;;;18.85;9.00;;;;;;;14.72;73.96;98741.00;5052958;28;20037;-55
2023/08/22 03:16:27;;;;;;;17.13;8.40;;;;;;;14.74;74.48;98744.22;5069631;28;20045;-57
2023/08/22 03:18:52;;;;;;;19.73;9.48;;;;;;;14.74;72.77;98746.88;5069561;28;20047;-56
2023/08/22 03:21:18;;;;;;;19.05;9.32;;;;;;;14.80;73.65;98741.50;5070759;28;20044;-57
2023/08/22 03:23:44;;;;;;;16.65;9.25;;;;;;;14.84;72.74;98731.84;5055590;28;20057;-57
2023/08/22 03:26:14;;;;;;;17.52;9.25;;;;;;;14.85;73.33;98728.88;5057073;28;20405;-57
2023/08/22 03:28:40;;;;;;;16.40;8.65;;;;;;;14.90;73.30;98725.38;5073299;28;20047;-55
2023/08/22 03:31:08;;;;;;;20.38;9.30;;;;;;;14.97;73.41;98732.00;5073423;28;20175;-57
2023/08/22 03:33:34;;;;;;;17.67;8.75;;;;;;;15.01;73.00;98721.53;5056508;28;20127;-56
2023/08/22 03:36:03;;;;;;;16.13;8.68;;;;;;;15.04;74.12;98723.66;5072826;28;20044;-57
2023/08/22 03:38:29;;;;;;;16.30;8.95;;;;;;;15.02;73.10;98720.44;5074760;28;20375;-56
2023/08/22 03:40:56;;;;;;;18.67;9.20;;;;;;;15.00;72.71;98719.97;5072893;28;20123;-56
2023/08/22 03:43:22;;;;;;;20.40;10.05;;;;;;;14.98;72.15;98712.22;5073193;28;20047;-59
2023/08/22 03:45:48;;;;;;;15.88;9.82;;;;;;;15.18;71.46;98713.88;5074085;28;20052;-58
2023/08/22 03:48:14;;;;;;;24.33;10.00;;;;;;;15.47;70.16;98709.53;5072541;28;20056;-57
2023/08/22 03:50:41;;;;;;;21.63;10.35;;;;;;;15.61;69.14;98719.25;5072692;28;20451;-57
2023/08/22 03:53:08;;;;;;;20.73;10.57;;;;;;;15.69;69.52;98714.41;5072436;28;20055;-56
2023/08/22 03:55:34;;;;;;;18.15;9.88;;;;;;;15.78;69.00;98716.13;5072594;28;20041;-56
2023/08/22 03:58:00;;;;;;;21.25;10.00;;;;;;;15.98;68.33;98716.94;5072656;28;20564;-57
2023/08/22 04:00:26;;;;;;;18.45;10.65;;;;;;;16.22;67.37;98717.66;5072536;28;20045;-58
2023/08/22 04:02:58;;;;;;;15.55;10.00;;;;;;;16.32;66.98;98717.50;5072528;28;20395;-56
2023/08/22 04:05:24;;;;;;;18.95;10.23;;;;;;;16.29;67.11;98715.38;5072238;28;20048;-57
2023/08/22 04:07:51;;;;;;;23.30;11.32;;;;;;;16.51;66.66;98701.41;5072419;28;20524;-56
2023/08/22 04:10:17;;;;;;;21.38;11.00;;;;;;;16.79;65.74;98706.84;5073801;28;20436;-57
2023/08/22 04:12:43;;;;;;;16.58;10.77;;;;;;;17.00;63.92;98694.72;5071393;28;20437;-56
2023/08/22 04:15:09;;;;;;;21.13;9.98;;;;;;;17.27;63.61;98700.38;5073351;28;20114;-57
2023/08/22 04:17:35;;;;;;;18.42;10.38;;;;;;;17.43;62.92;98702.44;5073676;28;20066;-56
2023/08/22 04:20:03;;;;;;;19.17;10.00;;;;;;;17.54;63.07;98705.69;5072034;28;20083;-56
2023/08/22 04:22:32;;;;;;;19.55;10.38;;;;;;;17.87;61.64;98697.53;5075074;28;20113;-56
2023/08/22 04:24:57;;;;;;;19.48;10.13;;;;;;;18.03;61.04;98698.78;5093802;28;20123;-57
2023/08/22 04:27:23;;;;;;;17.02;10.15;;;;;;;18.27;60.32;98698.50;5075380;28;20048;-57
2023/08/22 04:29:49;;;;;;;21.30;9.77;;;;;;;18.46;59.25;98684.09;5093368;28;20032;-57
2023/08/22 04:32:14;;;;;;;24.95;11.05;;;;;;;18.62;59.11;98685.31;5075176;28;20101;-56
2023/08/22 04:34:40;;;;;;;16.98;9.85;;;;;;;18.77;59.29;98679.56;5073887;28;20035;-56
2023/08/22 04:37:07;;;;;;;28.50;11.40;;;;;;;18.56;59.46;98686.50;5075127;28;20072;-57
2023/08/22 04:39:33;;;;;;;17.85;10.07;;;;;;;18.20;61.35;98687.38;5075286;28;20082;-55
2023/08/22 04:42:16;;;;;;;20.17;10.35;;;;;;;17.91;62.07;98683.22;5075088;28;20059;-57
2023/08/22 04:44:51;;;;;;;23.95;10.68;;;;;;;17.81;62.86;98688.00;5075404;28;20139;-57
2023/08/22 04:47:17;;;;;;;21.35;10.88;;;;;;;17.88;62.57;98689.19;5074890;28;20143;-56
2023/08/22 04:49:43;;;;;;;19.30;11.27;;;;;;;18.06;62.04;98700.03;5058151;28;20130;-56
2023/08/22 04:52:09;;;;;;;18.98;10.45;;;;;;;18.07;61.42;98685.56;5074701;28;20050;-56
2023/08/22 04:54:35;;;;;;;22.63;10.82;;;;;;;18.17;62.10;98679.94;5074941;28;20044;-56
2023/08/22 04:57:02;;;;;;;23.65;11.27;;;;;;;18.14;62.05;98686.72;5058032;28;20047;-57
2023/08/22 04:59:27;;;;;;;19.38;10.98;;;;;;;18.13;62.49;98687.81;5074583;28;20524;-56
2023/08/22 05:01:54;;;;;;;22.40;10.43;;;;;;;18.33;62.19;98689.22;5058149;28;20044;-58
2023/08/22 05:04:20;;;;;;;18.27;10.57;;;;;;;18.54;62.57;98683.34;5074617;28;20471;-59
2023/08/22 05:06:48;;;;;;;23.83;11.07;;;;;;;18.60;61.02;98690.97;5074225;28;20055;-57
2023/08/22 05:09:14;;;;;;;22.30;11.13;;;;;;;18.69;60.56;98688.34;5092623;28;20055;-56
2023/08/22 05:11:40;;;;;;;19.98;11.40;;;;;;;18.83;59.63;98694.44;5074505;28;20055;-56
2023/08/22 05:14:09;;;;;;;24.17;10.98;;;;;;;19.06;59.47;98692.50;5074286;28;20094;-57
2023/08/22 05:16:35;;;;;;;19.60;10.65;;;;;;;19.24;58.49;98692.56;5092239;28;20044;-56
2023/08/22 05:19:01;;;;;;;18.20;10.88;;;;;;;19.35;58.13;98691.16;5092115;28;20126;-57
2023/08/22 05:21:26;;;;;;;18.02;10.13;;;;;;;19.42;57.98;98694.19;5074051;28;20528;-58
2023/08/22 05:23:52;;;;;;;18.75;10.02;;;;;;;19.41;58.10;98695.31;5074125;28;20052;-60
2023/08/22 05:26:18;;;;;;;18.23;10.27;;;;;;;19.45;56.80;98692.78;5057278;28;20052;-57
2023/08/22 05:28:48;;;;;;;16.75;10.57;;;;;;;19.60;55.18;98694.22;5073946;28;20493;-56
2023/08/22 05:31:21;;;;;;;21.10;10.35;;;;;;;19.80;54.83;98682.91;5055676;28;20039;-58
2023/08/22 05:33:47;;;;;;;18.58;10.68;;;;;;;20.11;54.17;98682.72;5071434;28;20052;-57
2023/08/22 05:36:13;;;;;;;18.08;9.88;;;;;;;20.29;54.05;98680.03;5091591;28;20047;-58
2023/08/22 05:38:39;;;;;;;18.13;11.00;;;;;;;20.39;54.11;98679.72;5092005;28;20509;-57
2023/08/22 05:41:04;;;;;;;20.85;10.15;;;;;;;20.62;54.07;98674.94;5073717;28;20079;-58
2023/08/22 05:43:31;;;;;;;16.92;9.88;;;;;;;20.77;53.19;98677.13;5073699;28;20071;-57
2023/08/22 05:45:57;;;;;;;17.38;9.88;;;;;;;20.75;52.98;98683.94;5056877;28;20063;-57
2023/08/22 05:48:23;;;;;;;15.80;9.15;;;;;;;20.62;52.76;98674.94;5073585;28;20097;-57
2023/08/22 05:50:50;;;;;;;17.95;9.52;;;;;;;20.46;53.92;98677.31;5091407;28;20039;-58
2023/08/22 05:53:16;;;;;;;15.00;9.23;;;;;;;20.43;53.08;98673.34;5073225;28;20059;-57
2023/08/22 05:55:42;;;;;;;16.85;9.18;;;;;;;20.49;53.01;98671.28;5091715;28;20032;-57
2023/08/22 05:58:08;;;;;;;14.05;8.55;;;;;;;20.49;53.81;98670.50;5092087;28;20442;-55
2023/08/22 06:00:35;;;;;;;14.20;8.82;;;;;;;20.56;52.97;98665.44;5073713;28;20043;-56
2023/08/22 06:03:02;;;;;;;16.92;8.40;;;;;;;20.57;53.04;98658.97;5073136;28;20512;-55
2023/08/22 06:05:28;;;;;;;23.98;9.60;;;;;;;20.68;52.92;98659.38;5073241;28;20040;-58
2023/08/22 06:07:54;;;;;;;10.60;6.60;;;;;;;20.74;51.64;98650.03;5073250;28;20165;-56
2023/08/22 06:10:22;;;;;;;12.68;6.60;;;;;;;20.78;50.75;98648.28;5071358;28;20627;-54
2023/08/22 06:12:48;;;;;;;18.13;6.80;;;;;;;20.70;51.07;98649.09;5089756;28;20089;-57
2023/08/22 06:15:14;;;;;;;10.50;6.53;;;;;;;20.64;50.44;98646.56;5056529;28;20443;-57
2023/08/22 06:17:39;;;;;;;10.38;7.40;;;;;;;20.56;51.81;98642.03;5073371;28;20071;-57
2023/08/22 06:20:06;;;;;;;13.38;6.82;;;;;;;20.56;51.50;98644.72;5073069;28;20043;-57
2023/08/22 06:22:33;;;;;;;13.40;7.47;;;;;;;20.47;53.80;98641.22;5073037;28;20189;-56
2023/08/22 06:24:59;;;;;;;11.50;7.28;;;;;;;20.38;53.98;98635.88;5073020;28;20540;-56
2023/08/22 06:27:26;;;;;;;13.05;8.43;;;;;;;20.44;54.56;98631.06;5071690;28;20048;-55
2023/08/22 06:29:53;;;;;;;13.10;7.40;;;;;;;20.49;53.39;98632.81;5019436;28;20201;-54
2023/08/22 06:32:21;;;;;;;10.73;6.72;;;;;;;20.47;53.78;98629.66;5054905;28;20076;-56
2023/08/22 06:34:49;;;;;;;10.98;6.60;;;;;;;20.51;52.16;98633.28;5071147;28;20055;-54
2023/08/22 06:37:14;;;;;;;10.00;6.00;;;;;;;20.50;51.00;98631.69;5072866;28;20052;-55
2023/08/22 06:39:40;;;;;;;10.32;5.28;;;;;;;20.45;50.17;98631.88;5072785;28;20044;-55
2023/08/22 06:42:06;;;;;;;12.50;6.38;;;;;;;20.46;50.80;98630.75;5056370;28;20063;-56
2023/08/22 06:44:36;;;;;;;8.60;5.22;;;;;;;20.48;50.78;98625.88;5072657;28;20040;-55
2023/08/22 06:47:03;;;;;;;8.18;5.30;;;;;;;20.57;50.69;98630.13;5066241;28;20424;-55
2023/08/22 06:49:29;;;;;;;9.45;4.90;;;;;;;20.70;50.19;98622.94;5072357;28;20042;-55
2023/08/22 06:51:55;;;;;;;10.10;5.15;;;;;;;20.77;50.49;98619.78;4983775;28;20044;-56
2023/08/22 06:54:21;;;;;;;8.00;5.07;;;;;;;20.62;50.62;98621.88;4887837;28;20183;-54
2023/08/22 06:56:47;;;;;;;9.52;5.63;;;;;;;20.50;51.28;98618.22;4846851;28;20262;-55
2023/08/22 06:59:12;;;;;;;11.40;5.53;;;;;;;20.49;51.25;98617.44;4792979;28;20226;-56
2023/08/22 07:01:39;;;;;;;7.53;5.03;;;;;;;20.66;50.39;98616.63;4893076;28;20490;-51
2023/08/22 07:04:05;;;;;;;11.02;6.50;;;;;;;20.90;51.32;98612.56;5081401;28;20036;-54
2023/08/22 07:06:30;;;;;;;14.00;6.93;;;;;;;21.03;51.16;98612.34;5084350;28;20433;-55
2023/08/22 07:08:57;;;;;;;13.07;6.50;;;;;;;21.21;50.92;98614.97;5090018;28;20431;-54
2023/08/22 07:11:22;;;;;;;13.45;6.85;;;;;;;21.27;51.23;98611.75;5094746;28;20032;-54
2023/08/22 07:13:50;;;;;;;12.73;6.88;;;;;;;21.30;51.07;98610.31;5094249;28;20466;-56
2023/08/22 07:16:17;;;;;;;14.43;7.18;;;;;;;21.32;50.67;98610.75;5094240;28;20043;-55
2023/08/22 07:18:42;;;;;;;11.38;7.43;;;;;;;21.28;52.00;98605.22;5094345;28;20040;-53
2023/08/22 07:21:08;;;;;;;11.30;6.68;;;;;;;21.26;50.56;98606.66;5094388;28;20091;-54
2023/08/22 07:23:35;;;;;;;10.82;6.22;;;;;;;21.26;49.40;98603.97;5088890;28;20063;-54
2023/08/22 07:26:01;;;;;;;14.13;7.30;;;;;;;21.24;49.55;98606.22;5073973;28;20436;-52
2023/08/22 07:28:27;;;;;;;11.80;6.47;;;;;;;21.24;49.82;98606.22;5082773;28;20040;-55
2023/08/22 07:30:53;;;;;;;10.73;6.97;;;;;;;21.27;50.15;98598.25;5076683;28;20501;-56
2023/08/22 07:33:19;;;;;;;14.35;8.63;;;;;;;21.37;51.49;98607.09;5080981;28;20028;-55
2023/08/22 07:35:45;;;;;;;19.20;9.50;;;;;;;21.42;51.43;98602.31;5091071;28;20505;-55
2023/08/22 07:38:10;;;;;;;16.70;8.43;;;;;;;21.45;50.69;98600.88;5094016;28;20119;-53
2023/08/22 07:40:38;;;;;;;16.08;8.07;;;;;;;21.32;51.27;98594.56;5094530;28;20133;-55
2023/08/22 07:43:04;;;;;;;12.63;7.47;;;;;;;21.22;51.09;98597.66;5094127;28;20036;-53
2023/08/22 07:45:30;;;;;;;12.80;7.30;;;;;;;21.21;50.95;98602.28;5075906;28;20048;-57
2023/08/22 07:47:55;;;;;;;12.82;9.00;;;;;;;21.25;50.80;98605.88;5093720;28;20040;-54
2023/08/22 07:50:21;;;;;;;19.80;8.43;;;;;;;21.27;50.89;98611.75;5083352;28;20048;-56
2023/08/22 07:52:46;;;;;;;15.43;7.70;;;;;;;21.22;51.84;98603.06;5066701;28;20036;-57
2023/08/22 07:55:12;;;;;;;19.58;7.88;;;;;;;21.07;50.43;98596.31;5086809;28;20493;-58
2023/08/22 07:57:38;;;;;;;12.52;6.35;;;;;;;21.01;50.48;98590.34;5072706;28;20055;-55
2023/08/22 08:00:13;;;;;;;10.05;6.28;;;;;;;21.14;50.67;98591.19;5055265;28;20044;-52
2023/08/22 08:02:39;;;;;;;11.25;6.43;;;;;;;21.32;49.47;98586.47;5074042;28;20166;-53
2023/08/22 08:05:05;;;;;;;11.23;7.13;;;;;;;21.44;48.93;98592.00;5074456;28;20048;-56
2023/08/22 08:07:31;;;;;;;17.58;8.43;;;;;;;21.58;48.71;98575.53;5064609;28;20515;-54
2023/08/22 08:09:57;;;;;;;15.07;7.25;;;;;;;21.86;48.03;98577.69;5084734;28;20078;-55
2023/08/22 08:12:22;;;;;;;11.90;6.68;;;;;;;21.87;48.58;98581.97;5093984;28;20044;-53
2023/08/22 08:14:48;;;;;;;11.38;7.65;;;;;;;21.77;48.95;98586.66;5075262;28;20092;-54
2023/08/22 08:17:16;;;;;;;16.15;8.00;;;;;;;21.82;48.33;98588.34;5087344;28;20044;-56
2023/08/22 08:19:42;;;;;;;12.98;7.53;;;;;;;21.85;48.26;98576.88;5060732;28;20101;-54
2023/08/22 08:22:08;;;;;;;11.10;7.60;;;;;;;21.93;48.31;98578.72;5093257;28;20040;-53
2023/08/22 08:24:33;;;;;;;12.45;8.30;;;;;;;21.89;48.29;98582.44;5093002;28;20043;-53
2023/08/22 08:26:59;;;;;;;13.20;8.23;;;;;;;22.07;47.50;98580.34;5093411;28;20106;-53
2023/08/22 08:29:25;;;;;;;12.48;7.57;;;;;;;22.30;47.30;98580.78;5074386;28;20076;-54
2023/08/22 08:31:51;;;;;;;14.18;8.10;;;;;;;22.54;46.38;98582.72;5093221;28;20051;-56
2023/08/22 08:34:17;;;;;;;13.40;7.82;;;;;;;22.72;45.61;98577.91;5093145;28;20090;-52
2023/08/22 08:36:44;;;;;;;12.35;7.47;;;;;;;22.85;44.30;98577.56;5058482;28;20112;-53
2023/08/22 08:39:09;;;;;;;11.82;7.50;;;;;;;23.03;45.04;98577.34;5092095;28;20504;-53
2023/08/22 08:41:37;;;;;;;12.30;7.60;;;;;;;23.29;45.04;98579.66;5096504;28;20036;-56
2023/08/22 08:44:03;;;;;;;11.40;6.90;;;;;;;23.59;46.12;98574.75;5075022;28;20044;-53
2023/08/22 08:46:30;;;;;;;13.48;7.90;;;;;;;23.85;43.61;98574.31;5057818;28;20052;-53
2023/08/22 08:48:56;;;;;;;13.43;7.82;;;;;;;23.97;43.57;98573.50;5058264;28;20044;-54
2023/08/22 08:51:22;;;;;;;15.52;8.10;;;;;;;23.96;42.82;98575.41;5091959;28;20533;-55
2023/08/22 08:53:48;;;;;;;14.88;8.63;;;;;;;23.97;42.35;98574.28;5059107;28;20056;-57
2023/08/22 08:56:15;;;;;;;11.68;7.60;;;;;;;23.92;42.65;98573.75;5081833;28;20040;-55
2023/08/22 08:58:41;;;;;;;15.57;8.38;;;;;;;23.85;42.16;98570.84;5090107;28;20043;-59
2023/08/22 09:01:07;;;;;;;12.63;7.68;;;;;;;23.82;43.26;98575.03;5066775;28;20043;-55
2023/08/22 09:03:33;;;;;;;13.85;8.30;;;;;;;23.76;43.73;98566.34;5089890;28;20493;-55
2023/08/22 09:05:59;;;;;;;21.30;10.68;;;;;;;23.64;43.82;98574.50;5074611;28;20085;-53
2023/08/22 09:08:24;;;;;;;20.52;9.82;;;;;;;23.45;44.02;98566.25;5057014;28;20078;-51
2023/08/22 09:10:51;;;;;;;18.63;8.60;;;;;;;23.33;44.29;98567.84;5079199;28;20045;-55
2023/08/22 09:13:25;;;;;;;15.30;8.75;;;;;;;23.21;45.75;98567.88;5061675;28;20048;-56
2023/08/22 09:15:52;;;;;;;15.45;8.63;;;;;;;23.14;44.76;98564.94;5054606;28;20040;-57
2023/08/22 09:18:18;;;;;;;13.65;8.68;;;;;;;23.11;44.87;98563.69;5074034;28;20054;-56
2023/08/22 09:20:45;;;;;;;12.23;7.70;;;;;;;23.16;44.31;98572.72;5067385;28;20040;-58
2023/08/22 09:23:31;;;;;;;11.10;7.07;;;;;;;23.03;44.42;98569.22;5082473;28;20105;-55
2023/08/22 09:25:57;;;;;;;18.27;8.00;;;;;;;23.11;44.57;98568.31;5062322;28;20048;-56
2023/08/22 09:28:22;;;;;;;15.10;7.28;;;;;;;23.32;43.61;98571.69;5080097;28;20036;-53
2023/08/22 09:30:49;;;;;;;7.25;5.32;;;;;;;23.39;42.12;98573.03;5077372;28;20125;-59
2023/08/22 09:33:16;;;;;;;8.23;5.00;;;;;;;23.43;41.90;98565.78;5084077;28;20044;-57
2023/08/22 09:35:42;;;;;;;8.10;4.63;;;;;;;23.39;41.74;98570.31;5048869;28;20044;-58
2023/08/22 09:38:09;;;;;;;9.32;4.97;;;;;;;23.37;41.00;98569.84;5088375;28;20134;-55
2023/08/22 09:40:36;;;;;;;7.28;4.40;;;;;;;23.44;41.58;98575.47;5091950;28;20505;-55
2023/08/22 09:43:02;;;;;;;7.30;4.38;;;;;;;23.53;41.47;98568.81;5091803;28;20035;-56
2023/08/22 09:45:31;;;;;;;12.45;5.32;;;;;;;23.54;40.59;98564.19;5087389;28;20066;-56
2023/08/22 09:47:58;;;;;;;6.68;4.22;;;;;;;23.50;40.97;98571.38;5080998;28;20135;-56
2023/08/22 09:50:26;;;;;;;15.55;5.35;;;;;;;23.29;43.70;98566.16;5053263;28;20444;-56
2023/08/22 09:52:53;;;;;;;10.18;5.85;;;;;;;23.21;45.31;98575.97;5046073;28;20493;-58
2023/08/22 09:55:20;;;;;;;17.25;6.70;;;;;;;23.12;47.11;98569.91;5052729;28;20083;-58
2023/08/22 09:57:46;;;;;;;13.32;6.75;;;;;;;23.02;48.26;98571.16;5041074;28;20042;-56
2023/08/22 10:00:12;;;;;;;14.95;6.30;;;;;;;22.95;49.41;98570.94;5072509;28;20546;-55
2023/08/22 10:02:42;;;;;;;12.95;6.65;;;;;;;22.79;49.75;98570.78;5073346;28;20039;-58
2023/08/22 10:05:09;;;;;;;9.80;6.47;;;;;;;22.69;49.88;98565.84;5072730;28;20339;-56
2023/08/22 10:07:35;;;;;;;12.23;7.22;;;;;;;22.49;50.15;98569.44;5091212;28;20100;-56
2023/08/22 10:10:01;;;;;;;10.75;6.85;;;;;;;22.32;50.75;98573.13;5091437;28;20590;-57
2023/08/22 10:12:29;;;;;;;15.60;7.68;;;;;;;22.08;51.55;98569.22;5091490;28;20055;-56
2023/08/22 10:14:58;;;;;;;12.85;7.00;;;;;;;21.91;53.07;98572.88;5089955;28;20044;-56
2023/08/22 10:17:27;;;;;;;13.38;6.72;;;;;;;21.98;53.22;98572.34;5073540;28;20089;-55
2023/08/22 10:20:00;;;;;;;10.07;6.73;;;;;;;21.92;53.63;98579.84;5073273;28;20536;-56
2023/08/22 10:22:30;;;;;;;14.40;7.63;;;;;;;21.87;53.96;98580.06;5073734;28;20066;-56
2023/08/22 10:25:04;;;;;;;18.05;7.40;;;;;;;21.79;54.42;98578.22;5028355;28;20895;-56
2023/08/22 10:27:31;;;;;;;14.30;7.03;;;;;;;21.73;54.16;98583.03;4836150;28;20078;-56
2023/08/22 10:30:12;;;;;;;12.05;6.60;;;;;;;21.72;54.18;98586.84;4989348;28;20036;-57
2023/08/22 10:32:38;;;;;;;16.08;6.68;;;;;;;21.69;54.72;98584.03;5065787;28;20040;-57
2023/08/22 10:35:07;;;;;;;12.00;6.53;;;;;;;21.70;55.35;98586.38;5064437;28;20572;-56
2023/08/22 10:37:32;;;;;;;12.93;6.75;;;;;;;21.71;54.98;98585.28;5047516;28;20513;-55
2023/08/22 10:40:04;;;;;;;13.93;7.13;;;;;;;21.70;55.30;98588.28;5047367;28;20052;-57
2023/08/22 10:42:29;;;;;;;14.43;7.18;;;;;;;21.66;55.05;98592.78;5079671;28;20044;-55
2023/08/22 10:44:57;;;;;;;10.82;6.75;;;;;;;21.73;54.91;98590.31;5079421;28;20090;-54
2023/08/22 10:47:22;;;;;;;11.88;6.90;;;;;;;21.80;55.04;98587.91;5081908;28;20036;-58
2023/08/22 10:49:56;;;;;;;10.55;6.85;;;;;;;22.02;54.73;98583.25;5081544;28;20044;-55
2023/08/22 10:52:40;;;;;;;17.30;7.35;;;;;;;22.14;53.29;98594.09;5091141;28;20501;-54
2023/08/22 10:55:08;;;;;;;13.60;6.45;;;;;;;22.26;52.62;98586.03;5090517;28;20056;-53
2023/08/22 10:57:41;;;;;;;9.45;6.55;;;;;;;22.30;53.15;98588.88;5065367;28;20040;-55
2023/08/22 11:00:19;;;;;;;10.55;6.82;;;;;;;22.32;52.69;98582.00;5062759;28;20454;-57
2023/08/22 11:02:47;;;;;;;11.18;6.70;;;;;;;22.32;52.92;98578.50;5081694;28;20042;-57
2023/08/22 11:05:15;;;;;;;8.65;6.38;;;;;;;22.27;51.99;98579.53;5079930;28;20037;-55
2023/08/22 11:07:46;;;;;;;10.70;6.03;;;;;;;22.23;53.47;98582.09;5082516;28;20498;-57
2023/08/22 11:10:14;;;;;;;11.45;6.40;;;;;;;22.31;53.07;98583.13;5079730;28;20048;-56
2023/08/22 11:12:43;;;;;;;10.38;6.32;;;;;;;22.30;52.79;98584.25;5062327;28;20130;-56
2023/08/22 11:15:10;;;;;;;11.57;6.15;;;;;;;22.29;53.04;98584.59;5080998;28;20050;-57
2023/08/22 11:17:40;;;;;;;12.75;6.43;;;;;;;22.21;52.68;98584.34;5062508;28;20083;-57
2023/08/22 11:20:11;;;;;;;12.27;6.10;;;;;;;21.97;53.86;98587.75;5048514;28;20040;-56
2023/08/22 11:22:36;;;;;;;11.10;6.00;;;;;;;21.81;54.84;98583.28;5062039;28;20052;-55